Time;durP1;ratioP1;P1;durP2;ratioP2;P2;SDS_P1;SDS_P2;PMS_P1;PMS_P2;Temp;Humidity;BMP_temperature;BMP_pressure;BME280_temperature;BME280_humidity;BME280_pressure;Samples;Min_cycle;Max_cycle;Signal;HPM_P1;HPM_P2
2022/03/09 00:01:38;;;;;;;12.38;5.90;;;1.50;99.90;;;;;;5092963;28;20024;-67
2022/03/09 00:04:04;;;;;;;11.55;5.25;;;1.50;99.90;;;;;;5093673;28;20032;-67
2022/03/09 00:06:29;;;;;;;11.82;5.85;;;1.40;99.90;;;;;;5090466;28;20046;-67
2022/03/09 00:08:55;;;;;;;10.82;5.50;;;1.30;99.90;;;;;;5092353;28;20077;-67
2022/03/09 00:11:21;;;;;;;12.25;5.60;;;1.20;99.90;;;;;;5084990;28;20288;-67
2022/03/09 00:13:47;;;;;;;11.15;5.25;;;1.20;99.90;;;;;;5096067;28;20127;-67
2022/03/09 00:16:13;;;;;;;10.98;5.78;;;1.10;99.90;;;;;;5092631;28;20092;-67
2022/03/09 00:18:38;;;;;;;13.48;5.45;;;1.00;99.90;;;;;;5091598;28;20568;-67
2022/03/09 00:21:04;;;;;;;12.38;5.85;;;0.90;99.90;;;;;;5095319;28;20021;-67
2022/03/09 00:23:29;;;;;;;11.65;5.45;;;1.00;99.90;;;;;;5090594;28;20047;-67
2022/03/09 00:25:55;;;;;;;10.45;6.00;;;0.90;99.90;;;;;;5087726;28;20028;-67
2022/03/09 00:28:21;;;;;;;13.07;6.82;;;0.90;99.90;;;;;;5090306;28;20154;-67
2022/03/09 00:30:47;;;;;;;11.70;6.50;;;1.00;99.90;;;;;;5093147;28;20031;-67
2022/03/09 00:33:12;;;;;;;11.27;5.78;;;0.90;99.90;;;;;;5095381;28;20070;-67
2022/03/09 00:35:43;;;;;;;12.85;5.93;;;0.90;99.90;;;;;;5075080;28;20024;-67
2022/03/09 00:38:10;;;;;;;13.02;6.20;;;0.90;99.90;;;;;;5087234;28;20060;-67
2022/03/09 00:40:35;;;;;;;9.77;5.47;;;0.90;99.90;;;;;;5092970;28;20040;-67
2022/03/09 00:43:01;;;;;;;12.00;5.55;;;1.00;99.90;;;;;;5076108;28;20081;-67
2022/03/09 00:45:27;;;;;;;10.98;6.30;;;1.00;99.90;;;;;;5095241;28;20036;-67
2022/03/09 00:47:52;;;;;;;12.10;6.35;;;0.90;99.90;;;;;;5072935;28;20032;-67
2022/03/09 00:50:18;;;;;;;11.20;5.53;;;1.00;99.90;;;;;;5090564;28;20545;-67
2022/03/09 00:52:47;;;;;;;13.48;6.30;;;1.10;99.90;;;;;;5087657;28;20066;-66
2022/03/09 00:55:13;;;;;;;14.90;6.13;;;1.20;99.90;;;;;;5083245;28;20166;-67
2022/03/09 00:57:38;;;;;;;13.82;6.53;;;1.10;99.90;;;;;;5086962;28;20039;-67
2022/03/09 01:00:04;;;;;;;13.43;6.43;;;1.10;99.90;;;;;;5085817;28;20069;-67
2022/03/09 01:02:30;;;;;;;10.35;5.70;;;1.00;99.90;;;;;;5090915;28;20032;-67
2022/03/09 01:04:56;;;;;;;14.77;6.38;;;1.00;99.90;;;;;;5090750;28;20146;-67
2022/03/09 01:07:21;;;;;;;11.95;6.03;;;1.00;99.90;;;;;;5088589;28;20138;-67
2022/03/09 01:09:47;;;;;;;12.55;5.68;;;1.10;99.90;;;;;;5090807;28;20024;-67
2022/03/09 01:12:13;;;;;;;12.73;6.28;;;1.10;99.90;;;;;;5091638;28;20103;-67
2022/03/09 01:14:38;;;;;;;14.40;6.22;;;1.10;99.90;;;;;;5086591;28;20135;-67
2022/03/09 01:17:04;;;;;;;11.73;5.78;;;1.20;99.90;;;;;;5089779;28;20054;-67
2022/03/09 01:19:30;;;;;;;12.20;5.85;;;1.10;99.90;;;;;;5090656;28;20031;-67
2022/03/09 01:21:55;;;;;;;13.02;6.22;;;1.10;99.90;;;;;;5092286;28;20032;-67
2022/03/09 01:24:21;;;;;;;10.98;5.95;;;1.00;99.90;;;;;;5089341;28;20031;-66
2022/03/09 01:26:47;;;;;;;11.60;6.18;;;1.00;99.90;;;;;;5088108;28;20577;-67
2022/03/09 01:29:12;;;;;;;13.32;6.57;;;1.00;99.90;;;;;;5094071;28;20054;-68
2022/03/09 01:31:38;;;;;;;12.27;6.18;;;1.00;99.90;;;;;;5090937;28;20043;-67
2022/03/09 01:34:04;;;;;;;11.85;6.38;;;1.00;99.90;;;;;;5088652;28;20028;-67
2022/03/09 01:36:29;;;;;;;12.45;5.63;;;0.90;99.90;;;;;;5090278;28;20070;-67
2022/03/09 01:38:55;;;;;;;14.18;6.22;;;0.90;99.90;;;;;;5093262;28;20100;-67
2022/03/09 01:41:21;;;;;;;17.35;6.70;;;0.90;99.90;;;;;;5091311;28;20039;-67
2022/03/09 01:44:05;;;;;;;14.43;6.57;;;0.90;99.90;;;;;;5086108;28;20027;-67
2022/03/09 01:46:31;;;;;;;13.68;6.32;;;0.90;99.90;;;;;;5082537;28;20111;-67
2022/03/09 01:48:56;;;;;;;12.10;6.53;;;0.80;99.90;;;;;;5084453;28;20052;-66
2022/03/09 01:51:23;;;;;;;13.50;5.93;;;0.80;99.90;;;;;;5089279;28;20031;-67
2022/03/09 01:53:49;;;;;;;14.02;6.88;;;0.70;99.90;;;;;;5087232;28;20099;-67
2022/03/09 01:56:16;;;;;;;14.90;6.63;;;0.60;99.90;;;;;;5083380;28;20021;-66
2022/03/09 01:58:42;;;;;;;14.10;6.43;;;0.60;99.90;;;;;;5087391;28;20020;-66
2022/03/09 02:01:07;;;;;;;13.75;7.10;;;0.70;99.90;;;;;;5087817;28;20029;-66
2022/03/09 02:03:35;;;;;;;13.73;6.20;;;0.60;99.90;;;;;;5088329;28;20662;-67
2022/03/09 02:06:01;;;;;;;13.57;6.65;;;0.60;99.90;;;;;;5095918;28;20141;-66
2022/03/09 02:11:11;;;;;;;12.85;6.80;;;0.60;99.90;;;;;;5092955;28;20031;-67
2022/03/09 02:13:38;;;;;;;12.20;6.22;;;0.70;99.90;;;;;;5090457;28;20043;-67
2022/03/09 02:16:04;;;;;;;11.88;6.47;;;0.60;99.90;;;;;;5085983;28;20020;-67
2022/03/09 02:18:30;;;;;;;12.02;6.60;;;0.60;99.90;;;;;;5087325;28;20025;-67
2022/03/09 02:21:01;;;;;;;12.07;6.30;;;0.60;99.90;;;;;;5088956;28;20082;-67
2022/03/09 02:23:26;;;;;;;12.35;6.40;;;0.70;99.90;;;;;;5090967;28;20021;-67
2022/03/09 02:25:52;;;;;;;14.35;6.75;;;0.70;99.90;;;;;;5090667;28;20027;-67
2022/03/09 02:28:18;;;;;;;11.85;6.22;;;0.80;99.90;;;;;;5088024;28;20032;-67
2022/03/09 02:30:44;;;;;;;14.40;7.10;;;0.90;99.90;;;;;;5085443;28;20020;-67
2022/03/09 02:33:09;;;;;;;15.07;7.35;;;0.80;99.90;;;;;;5086888;28;20052;-69
2022/03/09 02:35:35;;;;;;;14.35;7.55;;;0.80;99.90;;;;;;5088799;28;20020;-67
2022/03/09 02:38:01;;;;;;;12.38;6.72;;;0.80;99.90;;;;;;5092950;28;20028;-67
2022/03/09 02:40:27;;;;;;;15.60;7.60;;;0.70;99.90;;;;;;5090219;28;20088;-67
2022/03/09 02:42:52;;;;;;;15.45;6.78;;;0.60;99.90;;;;;;5092438;28;20027;-67
2022/03/09 02:45:18;;;;;;;14.32;6.90;;;0.60;99.90;;;;;;5087244;28;20036;-67
2022/03/09 02:47:45;;;;;;;15.98;6.95;;;0.50;99.90;;;;;;5086857;28;20392;-67
2022/03/09 02:50:12;;;;;;;12.85;7.05;;;0.40;99.90;;;;;;5085777;28;20029;-67
2022/03/09 02:52:39;;;;;;;14.38;6.82;;;0.40;99.90;;;;;;5086060;28;20036;-65
2022/03/09 02:55:06;;;;;;;14.25;7.75;;;0.50;99.90;;;;;;5088047;28;20048;-67
2022/03/09 02:57:32;;;;;;;14.15;7.07;;;0.50;99.90;;;;;;5098998;28;20067;-68
2022/03/09 02:59:58;;;;;;;14.02;7.15;;;0.50;99.90;;;;;;5088646;28;20029;-65
2022/03/09 03:02:23;;;;;;;14.13;7.00;;;0.40;99.90;;;;;;5099609;28;20039;-66
2022/03/09 03:04:49;;;;;;;15.15;7.65;;;0.40;99.90;;;;;;5092257;28;20059;-66
2022/03/09 03:07:14;;;;;;;13.38;6.95;;;0.40;99.90;;;;;;5092429;28;20028;-65
2022/03/09 03:09:40;;;;;;;14.82;7.22;;;0.30;99.90;;;;;;5094350;28;20102;-66
2022/03/09 03:12:06;;;;;;;14.32;6.50;;;0.30;99.90;;;;;;5097327;28;20027;-66
2022/03/09 03:14:32;;;;;;;14.23;7.78;;;0.20;99.90;;;;;;5095330;28;20036;-66
2022/03/09 03:16:58;;;;;;;14.23;7.40;;;0.20;99.90;;;;;;5108991;28;20032;-66
2022/03/09 03:19:23;;;;;;;15.98;7.85;;;0.20;99.90;;;;;;5094903;28;20037;-66
2022/03/09 03:21:49;;;;;;;15.50;7.05;;;0.30;99.90;;;;;;5076703;28;20028;-66
2022/03/09 03:24:15;;;;;;;14.85;7.50;;;0.30;99.90;;;;;;5092370;28;20067;-66
2022/03/09 03:26:40;;;;;;;14.77;7.53;;;0.30;99.90;;;;;;5093445;28;20045;-65
2022/03/09 03:29:06;;;;;;;15.48;7.50;;;0.30;99.90;;;;;;5091603;28;20032;-66
2022/03/09 03:31:32;;;;;;;15.73;7.47;;;0.30;99.90;;;;;;5090126;28;20020;-66
2022/03/09 03:33:58;;;;;;;14.77;8.10;;;0.30;99.90;;;;;;5109765;27;20041;-66
2022/03/09 03:36:24;;;;;;;15.75;8.20;;;0.30;99.90;;;;;;5089812;28;20032;-66
2022/03/09 03:38:49;;;;;;;13.60;7.35;;;0.30;99.90;;;;;;5088912;28;20041;-66
2022/03/09 03:41:15;;;;;;;14.77;8.18;;;0.30;99.90;;;;;;5086794;28;20089;-66
2022/03/09 03:43:40;;;;;;;14.55;7.90;;;0.40;99.90;;;;;;5091989;28;20480;-66
2022/03/09 03:46:06;;;;;;;15.60;7.95;;;0.40;99.90;;;;;;5090149;28;20119;-66
2022/03/09 03:48:32;;;;;;;16.63;8.13;;;0.40;99.90;;;;;;5089744;28;20464;-66
2022/03/09 03:50:58;;;;;;;15.65;8.18;;;0.40;99.90;;;;;;5087220;28;20028;-66
2022/03/09 03:53:23;;;;;;;15.50;7.93;;;0.40;99.90;;;;;;5085800;28;20040;-66
2022/03/09 03:55:49;;;;;;;15.80;7.70;;;0.40;99.90;;;;;;5089191;28;20028;-66
2022/03/09 03:58:15;;;;;;;13.38;7.22;;;0.30;99.90;;;;;;5086834;28;20044;-66
2022/03/09 04:00:40;;;;;;;14.77;8.13;;;0.30;99.90;;;;;;5085347;28;20054;-65
2022/03/09 04:03:06;;;;;;;14.23;8.00;;;0.30;99.90;;;;;;5090599;28;20036;-66
2022/03/09 04:05:32;;;;;;;15.85;8.25;;;0.30;99.90;;;;;;5093736;28;20044;-66
2022/03/09 04:07:57;;;;;;;15.65;8.70;;;0.30;99.90;;;;;;5086800;28;20056;-66
2022/03/09 04:10:23;;;;;;;16.20;8.80;;;0.30;99.90;;;;;;5092539;28;20031;-66
2022/03/09 04:12:49;;;;;;;18.77;8.65;;;0.30;99.90;;;;;;5093383;28;20051;-66
2022/03/09 04:15:14;;;;;;;18.50;8.95;;;0.30;99.90;;;;;;5093089;28;20092;-66
2022/03/09 04:17:42;;;;;;;17.38;8.27;;;0.20;99.90;;;;;;5087180;28;20531;-66
2022/03/09 04:20:08;;;;;;;16.63;8.25;;;0.20;99.90;;;;;;5091071;28;20035;-66
2022/03/09 04:22:34;;;;;;;16.95;8.50;;;0.10;99.90;;;;;;5090352;28;20028;-66
2022/03/09 04:25:00;;;;;;;15.20;8.48;;;0.00;99.90;;;;;;5076370;28;20046;-66
2022/03/09 04:27:26;;;;;;;18.25;9.02;;;-0.10;99.90;;;;;;5091483;28;20024;-66
2022/03/09 04:29:51;;;;;;;16.88;8.32;;;0.00;99.90;;;;;;5083986;28;20111;-66
2022/03/09 04:32:17;;;;;;;19.08;9.18;;;0.00;99.90;;;;;;5089185;28;20036;-66
2022/03/09 04:34:42;;;;;;;19.13;9.23;;;-0.10;99.90;;;;;;5073082;28;20047;-66
2022/03/09 04:37:08;;;;;;;16.73;9.07;;;0.00;99.90;;;;;;5092975;28;20279;-67
2022/03/09 04:39:34;;;;;;;16.40;8.18;;;0.00;99.90;;;;;;5090763;28;20433;-66
2022/03/09 04:41:59;;;;;;;17.10;8.82;;;0.00;99.90;;;;;;5088102;28;20048;-66
2022/03/09 04:44:25;;;;;;;15.30;8.68;;;-0.10;99.90;;;;;;5095846;28;20578;-66
2022/03/09 04:46:51;;;;;;;18.00;8.63;;;-0.10;99.90;;;;;;5093789;28;20400;-67
2022/03/09 04:49:16;;;;;;;15.02;8.88;;;-0.10;99.90;;;;;;5084936;28;20037;-66
2022/03/09 04:51:42;;;;;;;14.40;8.38;;;0.00;99.90;;;;;;5088502;28;20388;-66
2022/03/09 04:54:08;;;;;;;17.77;8.40;;;0.00;99.90;;;;;;5087758;28;20113;-66
2022/03/09 04:56:33;;;;;;;16.83;8.38;;;0.00;99.90;;;;;;5089451;28;20024;-66
2022/03/09 04:58:59;;;;;;;15.38;8.80;;;-0.10;99.90;;;;;;5095639;28;20732;-66
2022/03/09 05:01:24;;;;;;;16.50;8.93;;;-0.20;99.90;;;;;;5091321;28;20077;-66
2022/03/09 05:03:50;;;;;;;15.93;8.70;;;-0.20;99.90;;;;;;5091515;28;20055;-66
2022/03/09 05:06:17;;;;;;;16.95;8.57;;;-0.30;99.90;;;;;;5088662;28;20055;-66
2022/03/09 05:08:42;;;;;;;16.25;8.55;;;-0.30;99.90;;;;;;5092566;28;20396;-66
2022/03/09 05:11:08;;;;;;;16.63;8.45;;;-0.40;99.90;;;;;;5084700;28;20029;-66
2022/03/09 05:13:34;;;;;;;15.70;8.10;;;-0.40;99.90;;;;;;5091943;28;20039;-66
2022/03/09 05:15:59;;;;;;;16.77;8.68;;;-0.40;99.90;;;;;;5089496;28;20073;-66
2022/03/09 05:18:25;;;;;;;18.10;9.35;;;-0.40;99.90;;;;;;5093218;28;20031;-67
2022/03/09 05:20:51;;;;;;;17.35;9.35;;;-0.40;99.90;;;;;;5087008;28;20035;-67
2022/03/09 05:23:16;;;;;;;15.88;8.50;;;-0.40;99.90;;;;;;5090634;28;20130;-68
2022/03/09 05:25:42;;;;;;;18.20;9.52;;;-0.30;99.90;;;;;;5087697;28;20082;-67
2022/03/09 05:28:08;;;;;;;18.05;9.48;;;-0.40;99.90;;;;;;5085590;28;20024;-68
2022/03/09 05:30:33;;;;;;;25.42;10.27;;;-0.40;99.90;;;;;;5091539;28;20032;-67
2022/03/09 05:32:59;;;;;;;18.73;10.55;;;-0.40;99.90;;;;;;5085805;28;20059;-67
2022/03/09 05:35:24;;;;;;;22.27;10.82;;;-0.30;99.90;;;;;;5096705;28;20055;-67
2022/03/09 05:37:50;;;;;;;18.08;9.65;;;-0.20;99.90;;;;;;5095720;28;20028;-68
2022/03/09 05:40:16;;;;;;;19.02;10.13;;;-0.30;99.90;;;;;;5083608;28;20514;-67
2022/03/09 05:42:43;;;;;;;18.10;9.82;;;-0.30;99.90;;;;;;5084583;28;20033;-67
2022/03/09 05:45:09;;;;;;;18.02;9.73;;;-0.40;99.90;;;;;;5088324;28;20016;-67
2022/03/09 05:47:35;;;;;;;16.02;8.93;;;-0.30;99.90;;;;;;5089661;28;20036;-67
2022/03/09 05:50:01;;;;;;;15.63;9.00;;;-0.30;99.90;;;;;;5089227;28;20031;-67
2022/03/09 05:52:27;;;;;;;17.25;9.18;;;-0.30;99.90;;;;;;5098594;28;20028;-67
2022/03/09 05:54:52;;;;;;;16.83;9.02;;;-0.20;99.90;;;;;;5093718;28;20436;-67
2022/03/09 05:57:20;;;;;;;17.42;9.85;;;-0.20;99.90;;;;;;5096702;28;20028;-67
2022/03/09 05:59:46;;;;;;;20.67;9.63;;;-0.20;99.90;;;;;;5099097;28;20031;-67
2022/03/09 06:02:12;;;;;;;17.02;8.80;;;-0.20;99.90;;;;;;5092795;28;20032;-67
2022/03/09 06:04:38;;;;;;;18.63;9.55;;;-0.30;99.90;;;;;;5096459;28;20074;-67
2022/03/09 06:07:04;;;;;;;18.80;9.65;;;-0.30;99.90;;;;;;5097689;28;20044;-65
2022/03/09 06:09:30;;;;;;;15.10;9.05;;;-0.30;99.90;;;;;;5100144;28;20028;-66
2022/03/09 06:11:57;;;;;;;19.83;9.55;;;-0.40;99.90;;;;;;5088836;28;20043;-66
2022/03/09 06:14:22;;;;;;;18.88;9.93;;;-0.40;99.90;;;;;;5099364;28;20097;-66
2022/03/09 06:16:48;;;;;;;17.48;9.07;;;-0.50;99.90;;;;;;5083556;28;20525;-66
2022/03/09 06:19:17;;;;;;;17.70;9.68;;;-0.50;99.90;;;;;;5084030;28;20099;-66
2022/03/09 06:21:43;;;;;;;18.45;9.27;;;-0.50;99.90;;;;;;5087805;28;20461;-66
2022/03/09 06:24:09;;;;;;;17.58;8.80;;;-0.50;99.90;;;;;;5098215;28;20476;-66
2022/03/09 06:26:36;;;;;;;16.73;9.55;;;-0.50;99.90;;;;;;5092682;28;20080;-66
2022/03/09 06:29:05;;;;;;;16.45;9.52;;;-0.40;99.90;;;;;;5101468;28;20083;-66
2022/03/09 06:31:31;;;;;;;18.48;9.70;;;-0.30;99.90;;;;;;5104203;28;20024;-66
2022/03/09 06:33:57;;;;;;;17.67;9.07;;;-0.30;99.90;;;;;;5097080;28;20038;-66
2022/03/09 06:36:23;;;;;;;17.98;9.48;;;-0.20;99.90;;;;;;5095925;28;20119;-66
2022/03/09 06:38:49;;;;;;;18.02;9.85;;;-0.10;99.90;;;;;;5101386;28;20400;-66
2022/03/09 06:41:15;;;;;;;16.73;9.45;;;-0.10;99.90;;;;;;5097919;28;20055;-66
2022/03/09 06:43:40;;;;;;;18.23;9.00;;;0.00;99.90;;;;;;5105734;28;20024;-66
2022/03/09 06:46:06;;;;;;;18.15;9.85;;;0.00;99.90;;;;;;5101077;28;20048;-66
2022/03/09 06:48:32;;;;;;;17.02;9.30;;;0.00;99.90;;;;;;5103881;28;20035;-66
2022/03/09 06:50:57;;;;;;;20.13;9.50;;;0.10;99.90;;;;;;5099594;28;20111;-66
2022/03/09 06:53:23;;;;;;;19.73;9.43;;;0.20;99.90;;;;;;5104311;28;20070;-66
2022/03/09 06:55:49;;;;;;;16.83;9.13;;;0.20;99.90;;;;;;5102538;28;20024;-66
2022/03/09 06:58:15;;;;;;;20.42;9.77;;;0.30;99.90;;;;;;5102300;28;20084;-66
2022/03/09 07:00:41;;;;;;;17.23;8.90;;;0.30;99.90;;;;;;5099104;28;20024;-66
2022/03/09 07:03:07;;;;;;;18.48;9.43;;;0.40;99.90;;;;;;5099366;28;20032;-66
2022/03/09 07:05:33;;;;;;;17.80;8.70;;;0.40;99.90;;;;;;5104536;28;20101;-66
2022/03/09 07:07:59;;;;;;;17.85;9.45;;;0.50;99.90;;;;;;5091252;28;20032;-67
2022/03/09 07:10:25;;;;;;;20.30;9.30;;;0.50;99.90;;;;;;5095429;28;20586;-66
2022/03/09 07:12:51;;;;;;;17.23;9.40;;;0.50;99.90;;;;;;5091210;28;20044;-66
2022/03/09 07:15:17;;;;;;;17.02;9.10;;;0.60;99.90;;;;;;5096361;28;20481;-67
2022/03/09 07:17:44;;;;;;;17.83;8.88;;;0.60;99.90;;;;;;5095231;28;20040;-66
2022/03/09 07:20:10;;;;;;;15.93;8.65;;;0.60;99.90;;;;;;5093161;28;20032;-66
2022/03/09 07:22:36;;;;;;;17.58;8.60;;;0.80;99.90;;;;;;5094393;28;20486;-65
2022/03/09 07:25:02;;;;;;;18.85;9.05;;;0.80;99.90;;;;;;5101254;28;20044;-66
2022/03/09 07:27:28;;;;;;;16.40;8.70;;;0.90;99.90;;;;;;5089014;28;20489;-66
2022/03/09 07:29:54;;;;;;;18.92;9.70;;;0.90;99.90;;;;;;5097110;28;20039;-66
2022/03/09 07:32:20;;;;;;;17.80;8.75;;;1.10;99.90;;;;;;5101536;28;20111;-66
2022/03/09 07:34:46;;;;;;;16.73;8.45;;;1.20;99.90;;;;;;5102954;28;20040;-66
2022/03/09 07:37:12;;;;;;;16.38;9.30;;;1.20;99.90;;;;;;5091644;28;20021;-66
2022/03/09 07:39:37;;;;;;;17.65;8.85;;;1.30;99.90;;;;;;5104169;28;20024;-66
2022/03/09 07:42:03;;;;;;;17.33;8.43;;;1.40;99.90;;;;;;5095784;28;20104;-66
2022/03/09 07:44:29;;;;;;;16.35;8.60;;;1.40;99.90;;;;;;5092376;28;20035;-66
2022/03/09 07:46:55;;;;;;;16.15;8.55;;;1.50;99.90;;;;;;5092116;28;20458;-66
2022/03/09 07:49:22;;;;;;;16.80;8.52;;;1.50;99.90;;;;;;5096366;28;20035;-66
2022/03/09 07:51:49;;;;;;;17.10;8.48;;;1.60;99.90;;;;;;5086541;28;20013;-67
2022/03/09 07:54:16;;;;;;;16.08;8.98;;;1.60;99.90;;;;;;5099968;28;20028;-66
2022/03/09 07:56:42;;;;;;;15.63;8.65;;;1.70;99.90;;;;;;5098338;28;20032;-66
2022/03/09 07:59:08;;;;;;;16.30;8.18;;;1.80;99.90;;;;;;5096641;28;20032;-67
2022/03/09 08:01:34;;;;;;;16.67;8.27;;;2.00;99.90;;;;;;5097103;28;20123;-77
2022/03/09 08:04:00;;;;;;;17.77;8.88;;;2.10;99.90;;;;;;5090537;28;20012;-80
2022/03/09 08:06:26;;;;;;;18.90;9.30;;;2.20;99.90;;;;;;5102739;28;20055;-78
2022/03/09 08:08:52;;;;;;;17.55;8.68;;;2.30;99.90;;;;;;5075610;28;20115;-66
2022/03/09 08:11:17;;;;;;;13.68;8.02;;;2.40;99.90;;;;;;5090054;28;20070;-66
2022/03/09 08:13:43;;;;;;;17.10;9.02;;;2.50;99.90;;;;;;5098970;28;20114;-66
2022/03/09 08:16:09;;;;;;;15.15;8.23;;;2.70;99.90;;;;;;5097023;28;20045;-67
2022/03/09 08:18:34;;;;;;;15.63;9.20;;;2.90;99.90;;;;;;5093239;28;20032;-66
2022/03/09 08:21:00;;;;;;;15.73;7.95;;;2.90;99.90;;;;;;5098251;28;20020;-66
2022/03/09 08:23:26;;;;;;;15.90;7.80;;;3.10;99.90;;;;;;5098682;28;20040;-66
2022/03/09 08:25:52;;;;;;;15.73;8.30;;;3.20;99.90;;;;;;5094008;28;20028;-66
2022/03/09 08:28:18;;;;;;;19.13;9.85;;;3.20;99.90;;;;;;5094772;28;20021;-67
2022/03/09 08:30:44;;;;;;;16.70;8.38;;;3.40;99.90;;;;;;5089654;28;20032;-66
2022/03/09 08:33:10;;;;;;;13.82;7.68;;;3.60;99.90;;;;;;5088191;28;20570;-66
2022/03/09 08:35:36;;;;;;;17.05;8.18;;;3.70;99.90;;;;;;5115390;28;20024;-67
2022/03/09 08:38:03;;;;;;;15.85;7.80;;;3.90;99.90;;;;;;5091089;28;20118;-67
2022/03/09 08:40:29;;;;;;;14.80;7.57;;;4.10;99.90;;;;;;5088205;28;20474;-67
2022/03/09 08:42:54;;;;;;;14.82;7.72;;;4.60;99.90;;;;;;5092100;28;20032;-67
2022/03/09 08:45:20;;;;;;;14.20;7.82;;;5.70;99.90;;;;;;5089220;28;20032;-67
2022/03/09 08:47:46;;;;;;;14.48;7.22;;;7.60;99.90;;;;;;5090070;28;20024;-69
2022/03/09 08:50:11;;;;;;;13.35;7.60;;;9.70;82.90;;;;;;5090416;28;20028;-69
2022/03/09 08:52:37;;;;;;;11.38;6.78;;;11.60;65.90;;;;;;5087549;28;20039;-67
2022/03/09 08:55:04;;;;;;;15.30;7.78;;;12.90;55.30;;;;;;5092413;28;20058;-68
2022/03/09 08:57:29;;;;;;;15.43;8.30;;;14.10;56.50;;;;;;5091413;28;20033;-67
2022/03/09 08:59:57;;;;;;;13.65;8.02;;;14.60;47.80;;;;;;5086423;28;20087;-66
2022/03/09 09:02:23;;;;;;;13.45;7.57;;;15.80;48.20;;;;;;5088830;28;20027;-65
2022/03/09 09:04:49;;;;;;;13.27;7.70;;;16.90;43.50;;;;;;5090339;28;20129;-67
2022/03/09 09:07:18;;;;;;;13.30;7.78;;;17.20;42.10;;;;;;5088722;28;20036;-66
2022/03/09 09:09:43;;;;;;;13.40;7.70;;;17.90;40.10;;;;;;5089754;28;20103;-65
2022/03/09 09:12:10;;;;;;;18.63;10.63;;;18.60;39.80;;;;;;5091293;28;20036;-77
2022/03/09 09:14:36;;;;;;;14.98;8.15;;;19.00;39.80;;;;;;5092188;28;20036;-66
2022/03/09 09:17:04;;;;;;;16.90;9.07;;;19.10;38.40;;;;;;5095963;28;20028;-70
2022/03/09 09:19:34;;;;;;;14.95;7.97;;;19.70;37.90;;;;;;5096024;28;20043;-75
2022/03/09 09:22:01;;;;;;;13.43;8.02;;;20.30;35.80;;;;;;5089746;28;20040;-74
2022/03/09 09:24:27;;;;;;;14.32;8.05;;;20.50;35.00;;;;;;5096009;28;20024;-74
2022/03/09 09:26:52;;;;;;;15.10;7.55;;;20.10;33.80;;;;;;5084593;28;20035;-69
2022/03/09 09:29:18;;;;;;;11.90;7.57;;;20.10;34.90;;;;;;5091026;28;20031;-68
2022/03/09 09:31:44;;;;;;;11.98;7.70;;;18.80;35.40;;;;;;5094261;28;20036;-68
2022/03/09 09:34:10;;;;;;;13.43;8.00;;;18.00;36.60;;;;;;5090748;28;20066;-68
2022/03/09 09:36:36;;;;;;;12.85;8.07;;;16.60;38.00;;;;;;5090173;28;20024;-68
2022/03/09 09:39:02;;;;;;;12.85;8.18;;;16.00;39.10;;;;;;5091301;28;20039;-68
2022/03/09 09:41:32;;;;;;;12.50;8.38;;;15.40;40.80;;;;;;5094410;28;20080;-68
2022/03/09 09:43:58;;;;;;;13.82;8.18;;;14.50;40.80;;;;;;5089200;28;20035;-68
2022/03/09 09:46:24;;;;;;;12.10;7.88;;;14.40;44.20;;;;;;5097636;28;20028;-67
2022/03/09 09:48:50;;;;;;;14.00;7.93;;;14.10;43.20;;;;;;5096108;28;20028;-67
2022/03/09 09:51:16;;;;;;;12.25;7.65;;;14.20;44.80;;;;;;5091985;28;20020;-68
2022/03/09 09:53:43;;;;;;;11.75;7.63;;;14.10;45.00;;;;;;5096798;28;20037;-68
2022/03/09 09:56:09;;;;;;;13.55;8.70;;;14.00;44.70;;;;;;5088868;28;20036;-67
2022/03/09 09:58:37;;;;;;;13.07;8.15;;;14.30;45.30;;;;;;5092469;28;20031;-67
2022/03/09 10:01:03;;;;;;;13.35;7.55;;;15.50;45.20;;;;;;5089363;28;20409;-68
2022/03/09 10:03:29;;;;;;;14.00;7.65;;;16.50;40.00;;;;;;5092439;28;20451;-68
2022/03/09 10:05:54;;;;;;;12.07;8.23;;;18.20;38.20;;;;;;5086329;28;20040;-68
2022/03/09 10:08:20;;;;;;;14.15;7.97;;;19.10;37.00;;;;;;5092019;28;20490;-68
2022/03/09 10:10:57;;;;;;;17.60;8.32;;;19.80;36.60;;;;;;5091200;28;20481;-68
2022/03/09 10:13:24;;;;;;;15.90;9.15;;;20.90;34.50;;;;;;5091867;28;20470;-65
2022/03/09 10:16:12;;;;;;;13.48;8.32;;;21.00;32.50;;;;;;5089151;28;20208;-66
2022/03/09 10:18:39;;;;;;;15.98;8.63;;;21.90;31.90;;;;;;5090779;28;20120;-67
2022/03/09 10:21:14;;;;;;;14.60;7.75;;;22.40;31.40;;;;;;5087352;28;20094;-66
2022/03/09 10:23:58;;;;;;;12.05;8.05;;;22.90;30.20;;;;;;5093081;28;20028;-66
2022/03/09 10:26:31;;;;;;;14.88;8.50;;;22.90;29.80;;;;;;5095598;28;20034;-66
2022/03/09 10:28:59;;;;;;;14.38;8.10;;;23.10;29.40;;;;;;5094176;28;20024;-66
2022/03/09 10:32:01;;;;;;;14.43;8.10;;;23.20;29.60;;;;;;5092114;28;20621;-66
2022/03/09 10:34:29;;;;;;;13.00;8.05;;;24.10;29.70;;;;;;5089046;28;20127;-66
2022/03/09 10:37:00;;;;;;;13.75;7.97;;;24.50;28.50;;;;;;5090479;28;20024;-68
2022/03/09 10:39:30;;;;;;;14.60;8.77;;;24.80;28.60;;;;;;5091583;28;20043;-67
2022/03/09 10:41:58;;;;;;;16.63;8.73;;;24.50;28.20;;;;;;5085925;28;20028;-68
2022/03/09 10:44:45;;;;;;;14.85;8.45;;;24.80;28.30;;;;;;5089718;28;20031;-68
2022/03/09 10:47:12;;;;;;;14.27;8.35;;;25.20;28.50;;;;;;5092904;28;20090;-68
2022/03/09 10:49:38;;;;;;;12.68;8.25;;;25.60;26.40;;;;;;5088849;28;20503;-68
2022/03/09 10:52:04;;;;;;;18.83;10.63;;;24.70;27.70;;;;;;5087246;28;20029;-67
2022/03/09 10:54:34;;;;;;;15.10;8.88;;;25.00;27.90;;;;;;5084420;28;20051;-68
2022/03/09 10:57:12;;;;;;;14.07;8.10;;;25.50;27.90;;;;;;5109311;28;20469;-68
2022/03/09 10:59:49;;;;;;;12.57;8.38;;;25.10;26.90;;;;;;5083864;28;20036;-68
2022/03/09 11:02:19;;;;;;;15.77;8.35;;;25.80;26.90;;;;;;5087442;28;20031;-67
2022/03/09 11:05:05;;;;;;;14.38;8.63;;;26.00;26.40;;;;;;5093454;28;20047;-77
2022/03/09 11:07:32;;;;;;;12.52;8.75;;;26.60;27.90;;;;;;5090647;28;20036;-68
2022/03/09 11:09:58;;;;;;;12.27;7.97;;;26.40;25.70;;;;;;5085648;28;20021;-68
2022/03/09 11:12:24;;;;;;;16.08;8.30;;;26.60;26.40;;;;;;5089433;28;20043;-68
2022/03/09 11:14:50;;;;;;;12.35;8.32;;;25.70;25.80;;;;;;5091244;28;20520;-68
2022/03/09 11:17:22;;;;;;;14.35;8.40;;;25.70;26.20;;;;;;5095978;28;20108;-68
2022/03/09 11:19:48;;;;;;;12.60;8.70;;;25.20;25.40;;;;;;5090406;28;20031;-68
2022/03/09 11:22:13;;;;;;;13.52;8.30;;;25.40;26.30;;;;;;5093454;28;20114;-68
2022/03/09 11:24:40;;;;;;;12.77;8.40;;;23.00;25.90;;;;;;5093841;28;20048;-68
2022/03/09 11:27:10;;;;;;;12.40;8.60;;;24.90;26.70;;;;;;5093475;28;20079;-66
2022/03/09 11:29:37;;;;;;;12.90;8.13;;;25.00;26.00;;;;;;5091930;28;20105;-67
2022/03/09 11:32:06;;;;;;;13.05;8.57;;;25.30;26.60;;;;;;5097070;28;20052;-67
2022/03/09 11:34:51;;;;;;;16.40;8.52;;;25.00;26.60;;;;;;5090020;28;20029;-67
2022/03/09 11:37:18;;;;;;;12.63;8.32;;;26.30;27.10;;;;;;5091522;28;20036;-67
2022/03/09 11:40:08;;;;;;;14.75;8.18;;;26.30;26.30;;;;;;5095730;28;20547;-67
2022/03/09 11:42:35;;;;;;;12.27;7.90;;;26.20;26.30;;;;;;5091750;28;20038;-67
2022/03/09 11:45:30;;;;;;;14.15;8.30;;;26.80;26.50;;;;;;5093331;28;20070;-67
2022/03/09 11:48:07;;;;;;;13.57;8.38;;;26.70;25.70;;;;;;5088236;28;20103;-67
2022/03/09 11:50:48;;;;;;;12.27;8.75;;;27.40;25.30;;;;;;5093198;28;20024;-67
2022/03/09 11:53:15;;;;;;;17.63;8.38;;;27.60;24.90;;;;;;5093141;28;20031;-68
2022/03/09 11:55:41;;;;;;;12.27;8.90;;;27.30;25.40;;;;;;5093032;28;20071;-67
2022/03/09 11:58:14;;;;;;;12.57;8.80;;;27.80;25.50;;;;;;5099142;28;20036;-67
2022/03/09 12:01:00;;;;;;;15.73;8.52;;;27.40;25.00;;;;;;5095362;28;20038;-67
2022/03/09 12:03:39;;;;;;;14.40;8.35;;;27.80;26.10;;;;;;5089362;28;20028;-67
2022/03/09 12:06:25;;;;;;;12.25;7.72;;;27.20;23.90;;;;;;5094228;28;20036;-67
2022/03/09 12:08:51;;;;;;;15.57;9.13;;;27.30;24.30;;;;;;5094345;28;20031;-67
2022/03/09 12:11:19;;;;;;;15.80;8.55;;;26.80;24.70;;;;;;5088198;28;20506;-67
2022/03/09 12:13:46;;;;;;;14.85;9.07;;;27.20;24.90;;;;;;5097510;28;20060;-67
2022/03/09 12:16:26;;;;;;;12.65;8.57;;;27.70;24.90;;;;;;5091109;28;20403;-66
2022/03/09 12:19:06;;;;;;;14.45;8.95;;;27.80;25.00;;;;;;5092558;28;20030;-66
2022/03/09 12:21:35;;;;;;;15.70;9.73;;;27.60;24.20;;;;;;5092432;28;20451;-66
2022/03/09 12:24:04;;;;;;;13.70;8.68;;;26.60;24.80;;;;;;5092334;28;20039;-68
2022/03/09 12:26:55;;;;;;;15.73;9.18;;;26.10;25.20;;;;;;5093483;28;20035;-68
2022/03/09 12:29:20;;;;;;;15.15;10.20;;;25.30;26.30;;;;;;5091798;28;20442;-66
2022/03/09 12:31:58;;;;;;;13.45;9.25;;;25.80;26.00;;;;;;5088487;28;20042;-66
2022/03/09 12:34:31;;;;;;;13.52;8.95;;;26.00;25.30;;;;;;5087712;28;20021;-68
2022/03/09 12:36:57;;;;;;;13.52;9.20;;;25.60;25.60;;;;;;5090512;28;20031;-68
2022/03/09 12:39:23;;;;;;;13.43;8.98;;;26.00;25.60;;;;;;5089157;28;20028;-66
2022/03/09 12:41:58;;;;;;;14.25;8.82;;;26.60;25.60;;;;;;5085737;28;20043;-66
2022/03/09 12:44:27;;;;;;;13.30;8.63;;;27.00;25.60;;;;;;5088194;28;20036;-66
2022/03/09 12:46:53;;;;;;;12.60;8.60;;;25.50;25.40;;;;;;5088905;28;20025;-66